Poteau, OK (74953)

12:07 AM CDT on July 06, 2015 (GMT -0500)
Kerr | | Change Station
CLOSE
Current Station
Airport
Location: Poteau,
Elevation: 453 ft
Nearby Weather Stations

Elev 453 ft 35.02 °N, 94.62 °W | Updated 12 minutes ago

Clear
Clear
73 °F
Feels Like 73 °F
N
0
Wind Variable Wind from North

Today
High -- | Low -- °F
--% Chance of Precip.
Yesterday
High -- | Low -- °F
Precip. -- in
6:10 AM 8:35 PM
Waning Gibbous, 79% visible
Pressure 29.98 in
Visibility 10.0 miles
Clouds Clear
Dew Point 70 °F
Humidity 90%
Rainfall 0.00 in
Snow Depth Not available.
UV 0 out of 12
Pollen 3.40 out of 12
Air Quality Not available.
Flu Activity Not available.
METAR KRKR 060455Z AUTO 00000KT 10SM CLR 23/21 A2998 RMK AO2 T02290212

More Conditions Fewer Conditions

Pressure 29.98 in
Visibility 10.0 miles
Clouds Clear
Dew Point 70 °F
Humidity 90%
Rainfall 0.00 in
Snow Depth Not available.
UV 0 out of 12
Pollen 3.40 out of 12
Air Quality Not available.
Flu Activity Not available.
METAR KRKR 060455Z AUTO 00000KT 10SM CLR 23/21 A2998 RMK AO2 T02290212

More Conditions Fewer Conditions

10-Day Weather Forecast

×

Almanac

Astronomy

Jul. 06, 2015 Rise Set
Actual Time
Civil Twilight
Nautical Twilight
Astronomical Twilight
Moon
Length of Visible Light
Length of Day
Tomorrow will be .
, % of the Moon is Illuminated

Today's Extremes

State Highs State Lows

Community

WunderPhotos

Upload Photos

1,835,487 photos uploaded!

WunderBlogs® & News

Nearby

Air Quality

  Air Quality AQ Index Pollutant
Not available.

Snow Depth

Station Depth Elevation

Earthquake Activity

City Distance Mag. Time & Date
Minimum magnitude displayed is 2.5.

Coastal Water Temperatures

Place Temperature

Stations

Nearby Weather Stations

Station Location Temp. Windchill Dew Point Humidity Wind Precip. Elev Updated Type